sensor_id;sensor_type;location;lat;lon;timestamp;temperature;humidity
37874;DHT22;23709;48.078;11.684;2024-02-14T06:19:17;2.00;99.90
37874;DHT22;23709;48.078;11.684;2024-02-14T06:21:50;2.00;99.90
37874;DHT22;23709;48.078;11.684;2024-02-14T06:24:22;2.20;99.90
37874;DHT22;23709;48.078;11.684;2024-02-14T06:26:55;2.30;99.90
37874;DHT22;23709;48.078;11.684;2024-02-14T06:29:27;2.40;99.90
37874;DHT22;23709;48.078;11.684;2024-02-14T06:32:00;2.50;99.90
37874;DHT22;23709;48.078;11.684;2024-02-14T06:34:32;2.60;99.90
37874;DHT22;23709;48.078;11.684;2024-02-14T06:37:04;2.70;99.90
37874;DHT22;23709;48.078;11.684;2024-02-14T06:39:36;2.90;99.90
37874;DHT22;23709;48.078;11.684;2024-02-14T06:42:09;3.00;99.90
37874;DHT22;23709;48.078;11.684;2024-02-14T06:44:41;3.00;99.90
37874;DHT22;23709;48.078;11.684;2024-02-14T06:47:13;3.10;99.90
37874;DHT22;23709;48.078;11.684;2024-02-14T06:49:46;3.20;99.90
37874;DHT22;23709;48.078;11.684;2024-02-14T06:52:18;3.20;99.90
37874;DHT22;23709;48.078;11.684;2024-02-14T06:54:50;3.30;99.90
37874;DHT22;23709;48.078;11.684;2024-02-14T06:57:22;3.40;99.90
37874;DHT22;23709;48.078;11.684;2024-02-14T06:59:55;3.50;99.90
37874;DHT22;23709;48.078;11.684;2024-02-14T07:02:27;3.40;99.90
37874;DHT22;23709;48.078;11.684;2024-02-14T07:05:00;3.60;99.90
37874;DHT22;23709;48.078;11.684;2024-02-14T07:07:35;3.70;99.90
37874;DHT22;23709;48.078;11.684;2024-02-14T07:10:08;3.70;99.90
37874;DHT22;23709;48.078;11.684;2024-02-14T07:12:41;3.60;99.90
37874;DHT22;23709;48.078;11.684;2024-02-14T07:15:13;3.80;99.90
37874;DHT22;23709;48.078;11.684;2024-02-14T07:17:49;3.80;99.90
37874;DHT22;23709;48.078;11.684;2024-02-14T07:20:22;3.80;99.90
37874;DHT22;23709;48.078;11.684;2024-02-14T07:22:54;3.80;99.90
37874;DHT22;23709;48.078;11.684;2024-02-14T07:25:29;3.90;99.90
37874;DHT22;23709;48.078;11.684;2024-02-14T07:28:01;3.90;99.90
37874;DHT22;23709;48.078;11.684;2024-02-14T07:30:34;4.00;99.90
37874;DHT22;23709;48.078;11.684;2024-02-14T07:33:07;4.00;99.90
37874;DHT22;23709;48.078;11.684;2024-02-14T07:35:40;4.10;99.90
37874;DHT22;23709;48.078;11.684;2024-02-14T07:38:13;4.20;99.90
37874;DHT22;23709;48.078;11.684;2024-02-14T07:40:45;4.20;99.90
37874;DHT22;23709;48.078;11.684;2024-02-14T07:43:24;4.30;99.90
37874;DHT22;23709;48.078;11.684;2024-02-14T07:45:57;4.50;99.90
37874;DHT22;23709;48.078;11.684;2024-02-14T07:48:29;4.50;99.90
37874;DHT22;23709;48.078;11.684;2024-02-14T07:51:07;4.60;99.90
37874;DHT22;23709;48.078;11.684;2024-02-14T07:53:41;4.60;99.90
37874;DHT22;23709;48.078;11.684;2024-02-14T07:56:14;4.60;99.90
37874;DHT22;23709;48.078;11.684;2024-02-14T07:58:47;4.70;99.90
37874;DHT22;23709;48.078;11.684;2024-02-14T08:01:19;4.80;99.90
37874;DHT22;23709;48.078;11.684;2024-02-14T08:03:52;4.90;99.90
37874;DHT22;23709;48.078;11.684;2024-02-14T08:06:24;5.00;99.90
37874;DHT22;23709;48.078;11.684;2024-02-14T08:08:57;5.00;99.90
37874;DHT22;23709;48.078;11.684;2024-02-14T08:11:34;5.10;99.90
37874;DHT22;23709;48.078;11.684;2024-02-14T08:14:06;5.10;99.90
37874;DHT22;23709;48.078;11.684;2024-02-14T08:16:39;5.20;99.90
37874;DHT22;23709;48.078;11.684;2024-02-14T08:19:11;5.30;99.90
37874;DHT22;23709;48.078;11.684;2024-02-14T08:21:44;5.30;99.90
37874;DHT22;23709;48.078;11.684;2024-02-14T08:24:17;5.40;99.90
37874;DHT22;23709;48.078;11.684;2024-02-14T08:26:49;5.50;99.90
37874;DHT22;23709;48.078;11.684;2024-02-14T08:29:22;5.50;99.90
37874;DHT22;23709;48.078;11.684;2024-02-14T08:31:54;5.70;99.90
37874;DHT22;23709;48.078;11.684;2024-02-14T08:34:28;5.70;99.90
37874;DHT22;23709;48.078;11.684;2024-02-14T08:37:01;5.80;99.90
37874;DHT22;23709;48.078;11.684;2024-02-14T08:39:33;5.90;99.90
37874;DHT22;23709;48.078;11.684;2024-02-14T08:42:06;6.00;99.90
37874;DHT22;23709;48.078;11.684;2024-02-14T08:44:39;6.10;99.90
37874;DHT22;23709;48.078;11.684;2024-02-14T08:47:12;6.20;99.90
37874;DHT22;23709;48.078;11.684;2024-02-14T08:49:45;6.30;99.90
37874;DHT22;23709;48.078;11.684;2024-02-14T08:52:18;6.40;99.90
37874;DHT22;23709;48.078;11.684;2024-02-14T08:54:51;6.50;99.90
37874;DHT22;23709;48.078;11.684;2024-02-14T08:57:24;6.50;99.90
37874;DHT22;23709;48.078;11.684;2024-02-14T08:59:56;6.60;99.90
37874;DHT22;23709;48.078;11.684;2024-02-14T09:02:31;6.80;99.90
37874;DHT22;23709;48.078;11.684;2024-02-14T09:05:04;6.80;99.90
37874;DHT22;23709;48.078;11.684;2024-02-14T09:07:38;7.00;99.80
37874;DHT22;23709;48.078;11.684;2024-02-14T09:10:10;7.00;99.40
37874;DHT22;23709;48.078;11.684;2024-02-14T09:12:44;7.10;99.90
37874;DHT22;23709;48.078;11.684;2024-02-14T09:15:17;7.20;99.50
37874;DHT22;23709;48.078;11.684;2024-02-14T09:17:50;7.30;98.20
37874;DHT22;23709;48.078;11.684;2024-02-14T09:20:24;7.40;98.40
37874;DHT22;23709;48.078;11.684;2024-02-14T09:22:57;7.60;97.60
37874;DHT22;23709;48.078;11.684;2024-02-14T09:25:30;7.60;97.50
37874;DHT22;23709;48.078;11.684;2024-02-14T09:28:02;7.70;97.00
37874;DHT22;23709;48.078;11.684;2024-02-14T09:30:35;7.90;96.80
37874;DHT22;23709;48.078;11.684;2024-02-14T09:33:10;8.00;96.20
37874;DHT22;23709;48.078;11.684;2024-02-14T09:35:43;8.30;95.70
37874;DHT22;23709;48.078;11.684;2024-02-14T09:38:19;8.50;95.00
37874;DHT22;23709;48.078;11.684;2024-02-14T09:41:22;8.70;94.70
37874;DHT22;23709;48.078;11.684;2024-02-14T09:43:53;8.90;94.30
37874;DHT22;23709;48.078;11.684;2024-02-14T09:46:26;9.20;93.00
37874;DHT22;23709;48.078;11.684;2024-02-14T09:48:59;9.20;92.60
37874;DHT22;23709;48.078;11.684;2024-02-14T09:51:32;9.20;92.50
37874;DHT22;23709;48.078;11.684;2024-02-14T09:54:05;9.40;92.00
37874;DHT22;23709;48.078;11.684;2024-02-14T09:56:50;9.50;91.40
37874;DHT22;23709;48.078;11.684;2024-02-14T09:59:26;9.60;91.60
37874;DHT22;23709;48.078;11.684;2024-02-14T10:01:58;9.70;92.10
37874;DHT22;23709;48.078;11.684;2024-02-14T10:04:31;9.80;91.90
37874;DHT22;23709;48.078;11.684;2024-02-14T10:07:06;9.90;92.00
37874;DHT22;23709;48.078;11.684;2024-02-14T10:09:42;9.90;92.20
37874;DHT22;23709;48.078;11.684;2024-02-14T10:12:14;10.00;91.90
37874;DHT22;23709;48.078;11.684;2024-02-14T10:14:47;10.10;90.80
37874;DHT22;23709;48.078;11.684;2024-02-14T10:17:19;10.10;91.20
37874;DHT22;23709;48.078;11.684;2024-02-14T10:19:58;10.20;90.30
37874;DHT22;23709;48.078;11.684;2024-02-14T10:22:37;10.20;90.40
37874;DHT22;23709;48.078;11.684;2024-02-14T10:25:10;10.30;90.40
37874;DHT22;23709;48.078;11.684;2024-02-14T10:27:42;10.30;90.80
37874;DHT22;23709;48.078;11.684;2024-02-14T10:30:15;10.40;89.70
37874;DHT22;23709;48.078;11.684;2024-02-14T10:32:47;10.40;89.70
37874;DHT22;23709;48.078;11.684;2024-02-14T10:35:21;10.40;90.20
37874;DHT22;23709;48.078;11.684;2024-02-14T10:37:53;10.50;89.40
37874;DHT22;23709;48.078;11.684;2024-02-14T10:40:32;10.60;89.20
37874;DHT22;23709;48.078;11.684;2024-02-14T10:43:08;10.70;88.90
37874;DHT22;23709;48.078;11.684;2024-02-14T10:45:43;10.80;90.30
37874;DHT22;23709;48.078;11.684;2024-02-14T10:48:18;10.80;89.20
37874;DHT22;23709;48.078;11.684;2024-02-14T10:50:53;10.90;90.40
37874;DHT22;23709;48.078;11.684;2024-02-14T10:53:29;11.10;89.40
37874;DHT22;23709;48.078;11.684;2024-02-14T10:56:06;11.30;87.70
37874;DHT22;23709;48.078;11.684;2024-02-14T10:58:39;11.40;88.30
37874;DHT22;23709;48.078;11.684;2024-02-14T11:01:14;11.50;87.60
37874;DHT22;23709;48.078;11.684;2024-02-14T11:03:48;11.60;86.10
37874;DHT22;23709;48.078;11.684;2024-02-14T11:06:21;11.60;87.30
37874;DHT22;23709;48.078;11.684;2024-02-14T11:09:02;11.80;86.70
37874;DHT22;23709;48.078;11.684;2024-02-14T11:11:43;12.10;86.70
37874;DHT22;23709;48.078;11.684;2024-02-14T11:14:18;12.20;85.80
37874;DHT22;23709;48.078;11.684;2024-02-14T11:16:52;12.30;85.40
37874;DHT22;23709;48.078;11.684;2024-02-14T11:19:31;12.60;85.60
37874;DHT22;23709;48.078;11.684;2024-02-14T11:22:19;12.80;82.90
37874;DHT22;23709;48.078;11.684;2024-02-14T11:24:51;13.10;81.80
37874;DHT22;23709;48.078;11.684;2024-02-14T11:27:25;13.10;82.20
37874;DHT22;23709;48.078;11.684;2024-02-14T11:30:06;13.40;82.20
37874;DHT22;23709;48.078;11.684;2024-02-14T11:32:39;13.70;81.20
37874;DHT22;23709;48.078;11.684;2024-02-14T11:35:14;13.90;79.30
37874;DHT22;23709;48.078;11.684;2024-02-14T11:37:51;14.00;82.00
37874;DHT22;23709;48.078;11.684;2024-02-14T11:40:25;14.20;78.50
37874;DHT22;23709;48.078;11.684;2024-02-14T11:42:57;14.70;77.60
37874;DHT22;23709;48.078;11.684;2024-02-14T11:45:30;15.80;76.00
37874;DHT22;23709;48.078;11.684;2024-02-14T11:48:02;16.40;72.70
37874;DHT22;23709;48.078;11.684;2024-02-14T11:50:38;15.50;73.70
37874;DHT22;23709;48.078;11.684;2024-02-14T11:53:11;14.90;76.50
37874;DHT22;23709;48.078;11.684;2024-02-14T11:55:46;14.70;76.90
37874;DHT22;23709;48.078;11.684;2024-02-14T11:58:22;14.70;79.60
37874;DHT22;23709;48.078;11.684;2024-02-14T12:00:54;14.60;78.40
37874;DHT22;23709;48.078;11.684;2024-02-14T12:03:27;14.50;79.70
37874;DHT22;23709;48.078;11.684;2024-02-14T12:05:59;14.40;78.30
37874;DHT22;23709;48.078;11.684;2024-02-14T12:08:32;14.20;79.50
37874;DHT22;23709;48.078;11.684;2024-02-14T12:11:05;14.20;80.10
37874;DHT22;23709;48.078;11.684;2024-02-14T12:13:38;14.10;80.50
37874;DHT22;23709;48.078;11.684;2024-02-14T12:16:19;13.90;82.30
37874;DHT22;23709;48.078;11.684;2024-02-14T12:19:04;13.90;80.50
37874;DHT22;23709;48.078;11.684;2024-02-14T12:21:43;13.70;80.20
37874;DHT22;23709;48.078;11.684;2024-02-14T12:24:15;13.70;81.30
37874;DHT22;23709;48.078;11.684;2024-02-14T12:26:48;13.70;80.20
37874;DHT22;23709;48.078;11.684;2024-02-14T12:29:23;13.70;80.90
37874;DHT22;23709;48.078;11.684;2024-02-14T12:32:05;13.70;80.60
37874;DHT22;23709;48.078;11.684;2024-02-14T12:34:38;13.80;82.40
37874;DHT22;23709;48.078;11.684;2024-02-14T12:37:11;14.10;82.20
37874;DHT22;23709;48.078;11.684;2024-02-14T12:39:43;14.00;80.70
37874;DHT22;23709;48.078;11.684;2024-02-14T12:42:15;14.00;79.60
37874;DHT22;23709;48.078;11.684;2024-02-14T12:44:51;13.90;78.60
37874;DHT22;23709;48.078;11.684;2024-02-14T12:47:24;13.80;78.30
37874;DHT22;23709;48.078;11.684;2024-02-14T12:49:58;13.90;78.00
37874;DHT22;23709;48.078;11.684;2024-02-14T12:52:32;13.80;77.70
37874;DHT22;23709;48.078;11.684;2024-02-14T12:55:05;13.90;79.40
37874;DHT22;23709;48.078;11.684;2024-02-14T12:57:37;14.10;78.90
37874;DHT22;23709;48.078;11.684;2024-02-14T13:00:09;14.40;79.20
37874;DHT22;23709;48.078;11.684;2024-02-14T13:02:42;14.40;76.30
37874;DHT22;23709;48.078;11.684;2024-02-14T13:05:15;14.30;77.10
37874;DHT22;23709;48.078;11.684;2024-02-14T13:07:47;14.10;77.40
37874;DHT22;23709;48.078;11.684;2024-02-14T13:10:20;13.90;79.10
37874;DHT22;23709;48.078;11.684;2024-02-14T13:12:52;13.60;82.20
37874;DHT22;23709;48.078;11.684;2024-02-14T13:15:25;13.30;90.90
37874;DHT22;23709;48.078;11.684;2024-02-14T13:17:58;13.00;92.80
37874;DHT22;23709;48.078;11.684;2024-02-14T13:20:31;12.80;93.00
37874;DHT22;23709;48.078;11.684;2024-02-14T13:23:04;12.80;93.70
37874;DHT22;23709;48.078;11.684;2024-02-14T13:25:41;12.80;93.70
37874;DHT22;23709;48.078;11.684;2024-02-14T13:28:13;12.90;93.90
37874;DHT22;23709;48.078;11.684;2024-02-14T13:30:46;12.90;92.70
37874;DHT22;23709;48.078;11.684;2024-02-14T13:33:19;12.90;92.50
37874;DHT22;23709;48.078;11.684;2024-02-14T13:35:51;13.00;92.80
37874;DHT22;23709;48.078;11.684;2024-02-14T13:38:24;13.00;92.60
37874;DHT22;23709;48.078;11.684;2024-02-14T13:40:56;13.00;92.70
37874;DHT22;23709;48.078;11.684;2024-02-14T13:43:29;13.10;91.90
37874;DHT22;23709;48.078;11.684;2024-02-14T13:46:01;13.20;91.10
37874;DHT22;23709;48.078;11.684;2024-02-14T13:48:34;13.20;90.60
37874;DHT22;23709;48.078;11.684;2024-02-14T13:51:07;13.30;91.10
37874;DHT22;23709;48.078;11.684;2024-02-14T13:53:40;13.40;90.80
37874;DHT22;23709;48.078;11.684;2024-02-14T13:56:13;13.50;90.40
37874;DHT22;23709;48.078;11.684;2024-02-14T13:58:50;13.50;90.40
37874;DHT22;23709;48.078;11.684;2024-02-14T14:01:22;13.60;90.30
37874;DHT22;23709;48.078;11.684;2024-02-14T14:03:55;13.70;89.70
37874;DHT22;23709;48.078;11.684;2024-02-14T14:06:30;13.90;90.30
37874;DHT22;23709;48.078;11.684;2024-02-14T14:09:03;14.30;88.30
37874;DHT22;23709;48.078;11.684;2024-02-14T14:11:36;14.50;86.60
37874;DHT22;23709;48.078;11.684;2024-02-14T14:14:10;14.80;84.60
37874;DHT22;23709;48.078;11.684;2024-02-14T14:16:48;15.10;83.20
37874;DHT22;23709;48.078;11.684;2024-02-14T14:19:20;15.20;80.80
37874;DHT22;23709;48.078;11.684;2024-02-14T14:21:52;15.00;80.00
37874;DHT22;23709;48.078;11.684;2024-02-14T14:24:25;15.70;82.00
37874;DHT22;23709;48.078;11.684;2024-02-14T14:26:58;16.30;78.00
37874;DHT22;23709;48.078;11.684;2024-02-14T14:29:31;15.80;78.10
37874;DHT22;23709;48.078;11.684;2024-02-14T14:32:04;15.50;78.50
37874;DHT22;23709;48.078;11.684;2024-02-14T14:34:37;15.20;80.00
37874;DHT22;23709;48.078;11.684;2024-02-14T14:37:09;14.90;80.50
37874;DHT22;23709;48.078;11.684;2024-02-14T14:39:42;14.60;82.10
37874;DHT22;23709;48.078;11.684;2024-02-14T14:42:16;14.40;83.00
37874;DHT22;23709;48.078;11.684;2024-02-14T14:44:50;14.30;83.10
37874;DHT22;23709;48.078;11.684;2024-02-14T14:47:22;14.20;84.50
37874;DHT22;23709;48.078;11.684;2024-02-14T14:49:55;14.10;85.50
37874;DHT22;23709;48.078;11.684;2024-02-14T14:52:27;14.20;85.00
37874;DHT22;23709;48.078;11.684;2024-02-14T14:54:59;14.30;85.20
37874;DHT22;23709;48.078;11.684;2024-02-14T14:57:32;14.90;85.10
37874;DHT22;23709;48.078;11.684;2024-02-14T15:00:04;14.90;84.40
37874;DHT22;23709;48.078;11.684;2024-02-14T15:02:38;14.80;85.60
37874;DHT22;23709;48.078;11.684;2024-02-14T15:05:13;14.70;85.60
37874;DHT22;23709;48.078;11.684;2024-02-14T15:07:45;14.90;86.30
37874;DHT22;23709;48.078;11.684;2024-02-14T15:10:17;14.90;85.80
37874;DHT22;23709;48.078;11.684;2024-02-14T15:12:50;14.70;87.50
37874;DHT22;23709;48.078;11.684;2024-02-14T15:15:22;15.10;87.50
37874;DHT22;23709;48.078;11.684;2024-02-14T15:17:56;16.00;85.50
37874;DHT22;23709;48.078;11.684;2024-02-14T15:20:29;16.10;83.30
37874;DHT22;23709;48.078;11.684;2024-02-14T15:23:02;15.50;84.70
37874;DHT22;23709;48.078;11.684;2024-02-14T15:25:35;14.90;86.80
37874;DHT22;23709;48.078;11.684;2024-02-14T15:28:09;14.40;88.70
37874;DHT22;23709;48.078;11.684;2024-02-14T15:30:50;14.10;89.50
37874;DHT22;23709;48.078;11.684;2024-02-14T15:33:41;13.80;90.20
37874;DHT22;23709;48.078;11.684;2024-02-14T15:36:13;13.60;90.80
37874;DHT22;23709;48.078;11.684;2024-02-14T15:38:48;13.50;90.80
37874;DHT22;23709;48.078;11.684;2024-02-14T15:41:20;13.40;91.10
37874;DHT22;23709;48.078;11.684;2024-02-14T15:43:53;13.30;91.50
37874;DHT22;23709;48.078;11.684;2024-02-14T15:46:25;13.30;91.70
37874;DHT22;23709;48.078;11.684;2024-02-14T15:48:57;13.20;91.90
37874;DHT22;23709;48.078;11.684;2024-02-14T15:51:29;13.10;92.20
37874;DHT22;23709;48.078;11.684;2024-02-14T15:54:02;13.20;92.40
37874;DHT22;23709;48.078;11.684;2024-02-14T15:56:34;13.10;92.60
37874;DHT22;23709;48.078;11.684;2024-02-14T15:59:07;13.00;92.90
37874;DHT22;23709;48.078;11.684;2024-02-14T16:01:41;12.90;92.90
37874;DHT22;23709;48.078;11.684;2024-02-14T16:04:15;12.90;93.20
37874;DHT22;23709;48.078;11.684;2024-02-14T16:06:48;12.90;93.30
37874;DHT22;23709;48.078;11.684;2024-02-14T16:09:21;12.90;93.00
37874;DHT22;23709;48.078;11.684;2024-02-14T16:11:53;12.80;93.00
37874;DHT22;23709;48.078;11.684;2024-02-14T16:14:25;12.80;93.10
37874;DHT22;23709;48.078;11.684;2024-02-14T16:17:01;12.70;93.50
37874;DHT22;23709;48.078;11.684;2024-02-14T16:19:34;12.60;93.50
37874;DHT22;23709;48.078;11.684;2024-02-14T16:22:06;12.60;93.80
37874;DHT22;23709;48.078;11.684;2024-02-14T16:24:47;12.50;94.00
37874;DHT22;23709;48.078;11.684;2024-02-14T16:27:21;12.40;93.90
37874;DHT22;23709;48.078;11.684;2024-02-14T16:29:54;12.50;94.00
37874;DHT22;23709;48.078;11.684;2024-02-14T16:32:26;12.40;94.10
37874;DHT22;23709;48.078;11.684;2024-02-14T16:34:59;12.40;94.10
37874;DHT22;23709;48.078;11.684;2024-02-14T16:37:32;12.30;94.20
37874;DHT22;23709;48.078;11.684;2024-02-14T16:40:04;12.30;94.20
37874;DHT22;23709;48.078;11.684;2024-02-14T16:42:37;12.30;94.10
37874;DHT22;23709;48.078;11.684;2024-02-14T16:45:09;12.30;94.20
37874;DHT22;23709;48.078;11.684;2024-02-14T16:47:42;12.30;94.10
37874;DHT22;23709;48.078;11.684;2024-02-14T16:50:14;12.20;94.30
37874;DHT22;23709;48.078;11.684;2024-02-14T16:52:46;12.10;94.30
37874;DHT22;23709;48.078;11.684;2024-02-14T16:55:19;12.10;94.70
37874;DHT22;23709;48.078;11.684;2024-02-14T16:57:51;12.10;94.60
37874;DHT22;23709;48.078;11.684;2024-02-14T17:00:23;12.00;94.80
37874;DHT22;23709;48.078;11.684;2024-02-14T17:02:55;12.00;94.90
37874;DHT22;23709;48.078;11.684;2024-02-14T17:05:39;11.90;95.10
37874;DHT22;23709;48.078;11.684;2024-02-14T17:08:13;11.90;95.20
37874;DHT22;23709;48.078;11.684;2024-02-14T17:10:45;11.90;95.40
37874;DHT22;23709;48.078;11.684;2024-02-14T17:13:17;11.80;95.50
37874;DHT22;23709;48.078;11.684;2024-02-14T17:15:50;11.80;95.40
37874;DHT22;23709;48.078;11.684;2024-02-14T17:18:22;11.80;95.70
37874;DHT22;23709;48.078;11.684;2024-02-14T17:20:55;11.80;95.80
37874;DHT22;23709;48.078;11.684;2024-02-14T17:23:28;11.90;96.10
37874;DHT22;23709;48.078;11.684;2024-02-14T17:26:01;11.80;96.00
37874;DHT22;23709;48.078;11.684;2024-02-14T17:28:33;11.80;96.20
37874;DHT22;23709;48.078;11.684;2024-02-14T17:31:06;11.80;96.20
37874;DHT22;23709;48.078;11.684;2024-02-14T17:33:38;11.70;96.50
37874;DHT22;23709;48.078;11.684;2024-02-14T17:36:10;11.70;96.50
37874;DHT22;23709;48.078;11.684;2024-02-14T17:38:43;11.70;96.60
37874;DHT22;23709;48.078;11.684;2024-02-14T17:41:15;11.70;96.60
37874;DHT22;23709;48.078;11.684;2024-02-14T17:43:48;11.80;96.60
37874;DHT22;23709;48.078;11.684;2024-02-14T17:46:20;11.70;96.70
37874;DHT22;23709;48.078;11.684;2024-02-14T17:48:53;11.70;96.90
37874;DHT22;23709;48.078;11.684;2024-02-14T17:51:26;11.60;97.50
37874;DHT22;23709;48.078;11.684;2024-02-14T17:53:58;11.60;97.20
37874;DHT22;23709;48.078;11.684;2024-02-14T17:56:31;11.70;97.20
37874;DHT22;23709;48.078;11.684;2024-02-14T17:59:03;11.60;97.70
37874;DHT22;23709;48.078;11.684;2024-02-14T18:01:35;11.60;97.70
37874;DHT22;23709;48.078;11.684;2024-02-14T18:04:09;11.60;97.70
37874;DHT22;23709;48.078;11.684;2024-02-14T18:06:41;11.60;97.80
37874;DHT22;23709;48.078;11.684;2024-02-14T18:09:15;11.60;97.60
37874;DHT22;23709;48.078;11.684;2024-02-14T18:11:47;11.60;97.80
37874;DHT22;23709;48.078;11.684;2024-02-14T18:14:19;11.50;98.00
37874;DHT22;23709;48.078;11.684;2024-02-14T18:16:51;11.50;98.00
37874;DHT22;23709;48.078;11.684;2024-02-14T18:19:24;11.50;98.20
37874;DHT22;23709;48.078;11.684;2024-02-14T18:21:57;11.50;98.20
37874;DHT22;23709;48.078;11.684;2024-02-14T18:24:29;11.40;98.40
37874;DHT22;23709;48.078;11.684;2024-02-14T18:27:02;11.50;98.60
37874;DHT22;23709;48.078;11.684;2024-02-14T18:29:35;11.40;98.60
37874;DHT22;23709;48.078;11.684;2024-02-14T18:32:08;11.50;98.60
37874;DHT22;23709;48.078;11.684;2024-02-14T18:34:41;11.50;98.70
37874;DHT22;23709;48.078;11.684;2024-02-14T18:37:13;11.50;99.00
37874;DHT22;23709;48.078;11.684;2024-02-14T18:39:46;11.40;99.40
37874;DHT22;23709;48.078;11.684;2024-02-14T18:42:19;11.30;99.70
37874;DHT22;23709;48.078;11.684;2024-02-14T18:44:52;11.30;99.90
37874;DHT22;23709;48.078;11.684;2024-02-14T18:47:24;11.20;99.90
37874;DHT22;23709;48.078;11.684;2024-02-14T18:49:57;11.10;99.90
37874;DHT22;23709;48.078;11.684;2024-02-14T18:52:29;11.20;99.90
37874;DHT22;23709;48.078;11.684;2024-02-14T18:55:01;11.20;99.90
37874;DHT22;23709;48.078;11.684;2024-02-14T18:57:34;11.10;99.90
37874;DHT22;23709;48.078;11.684;2024-02-14T19:00:07;11.10;99.90
37874;DHT22;23709;48.078;11.684;2024-02-14T19:02:42;11.00;99.90
37874;DHT22;23709;48.078;11.684;2024-02-14T19:05:15;11.10;99.90
37874;DHT22;23709;48.078;11.684;2024-02-14T19:07:47;11.00;99.90
37874;DHT22;23709;48.078;11.684;2024-02-14T19:10:19;11.00;99.90
37874;DHT22;23709;48.078;11.684;2024-02-14T19:12:51;11.00;99.90
37874;DHT22;23709;48.078;11.684;2024-02-14T19:15:24;10.80;99.90
37874;DHT22;23709;48.078;11.684;2024-02-14T19:17:56;10.80;99.90
37874;DHT22;23709;48.078;11.684;2024-02-14T19:20:28;10.80;99.90
37874;DHT22;23709;48.078;11.684;2024-02-14T19:23:02;10.80;99.90
37874;DHT22;23709;48.078;11.684;2024-02-14T19:25:39;10.80;99.90
37874;DHT22;23709;48.078;11.684;2024-02-14T19:28:11;10.70;99.90
37874;DHT22;23709;48.078;11.684;2024-02-14T19:30:44;10.80;99.90
37874;DHT22;23709;48.078;11.684;2024-02-14T19:33:17;10.80;99.90
37874;DHT22;23709;48.078;11.684;2024-02-14T19:35:50;10.80;99.90
37874;DHT22;23709;48.078;11.684;2024-02-14T19:38:27;10.70;99.90
37874;DHT22;23709;48.078;11.684;2024-02-14T19:40:59;10.70;99.90
37874;DHT22;23709;48.078;11.684;2024-02-14T19:43:31;10.70;99.90
37874;DHT22;23709;48.078;11.684;2024-02-14T19:46:11;10.60;99.90
37874;DHT22;23709;48.078;11.684;2024-02-14T19:48:43;10.60;99.90
37874;DHT22;23709;48.078;11.684;2024-02-14T19:51:18;10.60;99.90
37874;DHT22;23709;48.078;11.684;2024-02-14T19:53:51;10.60;99.90
37874;DHT22;23709;48.078;11.684;2024-02-14T19:56:24;10.60;99.90
37874;DHT22;23709;48.078;11.684;2024-02-14T19:58:58;10.50;99.90
37874;DHT22;23709;48.078;11.684;2024-02-14T20:01:30;10.50;99.90
37874;DHT22;23709;48.078;11.684;2024-02-14T20:04:03;10.40;99.90
37874;DHT22;23709;48.078;11.684;2024-02-14T20:06:35;10.40;99.90
37874;DHT22;23709;48.078;11.684;2024-02-14T20:09:10;10.40;99.90
37874;DHT22;23709;48.078;11.684;2024-02-14T20:11:43;10.40;99.90
37874;DHT22;23709;48.078;11.684;2024-02-14T20:14:16;10.30;99.90
37874;DHT22;23709;48.078;11.684;2024-02-14T20:16:48;10.20;99.90
37874;DHT22;23709;48.078;11.684;2024-02-14T20:19:21;10.10;99.90
37874;DHT22;23709;48.078;11.684;2024-02-14T20:21:54;10.00;99.90
37874;DHT22;23709;48.078;11.684;2024-02-14T20:24:26;9.90;99.90
37874;DHT22;23709;48.078;11.684;2024-02-14T20:26:59;9.90;99.90
37874;DHT22;23709;48.078;11.684;2024-02-14T20:29:31;9.80;99.90
37874;DHT22;23709;48.078;11.684;2024-02-14T20:32:03;9.80;99.90
37874;DHT22;23709;48.078;11.684;2024-02-14T20:34:36;9.70;99.90
37874;DHT22;23709;48.078;11.684;2024-02-14T20:37:09;9.60;99.90
37874;DHT22;23709;48.078;11.684;2024-02-14T20:39:41;9.40;99.90
37874;DHT22;23709;48.078;11.684;2024-02-14T20:42:14;9.30;99.90
37874;DHT22;23709;48.078;11.684;2024-02-14T20:44:46;9.30;99.90
37874;DHT22;23709;48.078;11.684;2024-02-14T20:47:19;9.20;99.90
37874;DHT22;23709;48.078;11.684;2024-02-14T20:49:51;9.20;99.90
37874;DHT22;23709;48.078;11.684;2024-02-14T20:52:23;9.20;99.90
37874;DHT22;23709;48.078;11.684;2024-02-14T20:54:57;9.30;99.90
37874;DHT22;23709;48.078;11.684;2024-02-14T20:57:29;9.20;99.90
37874;DHT22;23709;48.078;11.684;2024-02-14T21:00:02;9.20;99.90
37874;DHT22;23709;48.078;11.684;2024-02-14T21:02:36;9.20;99.90
37874;DHT22;23709;48.078;11.684;2024-02-14T21:05:08;9.20;99.90
37874;DHT22;23709;48.078;11.684;2024-02-14T21:07:41;9.20;99.90
37874;DHT22;23709;48.078;11.684;2024-02-14T21:10:13;9.10;99.90
37874;DHT22;23709;48.078;11.684;2024-02-14T21:12:48;9.10;99.90
37874;DHT22;23709;48.078;11.684;2024-02-14T21:15:20;9.00;99.90
37874;DHT22;23709;48.078;11.684;2024-02-14T21:17:53;8.90;99.90
37874;DHT22;23709;48.078;11.684;2024-02-14T21:20:25;8.90;99.90
37874;DHT22;23709;48.078;11.684;2024-02-14T21:22:57;8.90;99.90
37874;DHT22;23709;48.078;11.684;2024-02-14T21:25:30;8.90;99.90
37874;DHT22;23709;48.078;11.684;2024-02-14T21:28:02;8.90;99.90
37874;DHT22;23709;48.078;11.684;2024-02-14T21:30:35;8.80;99.90
37874;DHT22;23709;48.078;11.684;2024-02-14T21:33:07;8.90;99.90
37874;DHT22;23709;48.078;11.684;2024-02-14T21:35:39;8.80;99.90
37874;DHT22;23709;48.078;11.684;2024-02-14T21:38:13;8.80;99.90
37874;DHT22;23709;48.078;11.684;2024-02-14T21:40:47;8.90;99.90
37874;DHT22;23709;48.078;11.684;2024-02-14T21:43:21;9.10;99.90
37874;DHT22;23709;48.078;11.684;2024-02-14T21:45:53;9.10;99.90
37874;DHT22;23709;48.078;11.684;2024-02-14T21:48:26;9.10;99.90
37874;DHT22;23709;48.078;11.684;2024-02-14T21:50:58;9.10;99.90
37874;DHT22;23709;48.078;11.684;2024-02-14T21:53:36;9.00;99.90
37874;DHT22;23709;48.078;11.684;2024-02-14T21:56:08;9.10;99.90
37874;DHT22;23709;48.078;11.684;2024-02-14T21:58:40;9.00;99.90
37874;DHT22;23709;48.078;11.684;2024-02-14T22:01:12;9.00;99.90
37874;DHT22;23709;48.078;11.684;2024-02-14T22:03:45;9.00;99.90
37874;DHT22;23709;48.078;11.684;2024-02-14T22:06:17;9.00;99.90
37874;DHT22;23709;48.078;11.684;2024-02-14T22:08:50;9.00;99.90
37874;DHT22;23709;48.078;11.684;2024-02-14T22:11:22;9.00;99.90
37874;DHT22;23709;48.078;11.684;2024-02-14T22:13:56;9.10;99.90
37874;DHT22;23709;48.078;11.684;2024-02-14T22:16:28;9.10;99.90
37874;DHT22;23709;48.078;11.684;2024-02-14T22:19:01;9.20;99.90